sensor_id;sensor_type;location;lat;lon;timestamp;pressure;altitude;pressure_sealevel;temperature;humidity
29909;BME280;36247;51.952;6.146;2023-09-19T00:01:42;100591.06;;;15.97;100.00
29909;BME280;36247;51.952;6.146;2023-09-19T00:04:16;100591.78;;;16.09;100.00
29909;BME280;36247;51.952;6.146;2023-09-19T00:06:44;100585.69;;;15.99;100.00
29909;BME280;36247;51.952;6.146;2023-09-19T00:09:10;100584.84;;;15.95;100.00
29909;BME280;36247;51.952;6.146;2023-09-19T00:11:37;100590.00;;;16.08;100.00
29909;BME280;36247;51.952;6.146;2023-09-19T00:14:07;100597.25;;;16.01;100.00
29909;BME280;36247;51.952;6.146;2023-09-19T00:16:34;100598.19;;;15.97;100.00
29909;BME280;36247;51.952;6.146;2023-09-19T00:19:00;100595.47;;;16.00;100.00
29909;BME280;36247;51.952;6.146;2023-09-19T00:21:26;100592.00;;;15.93;100.00
29909;BME280;36247;51.952;6.146;2023-09-19T00:23:52;100596.47;;;15.91;100.00
29909;BME280;36247;51.952;6.146;2023-09-19T00:26:19;100603.56;;;15.92;100.00
29909;BME280;36247;51.952;6.146;2023-09-19T00:28:48;100604.50;;;15.90;100.00
29909;BME280;36247;51.952;6.146;2023-09-19T00:31:13;100606.31;;;15.86;100.00
29909;BME280;36247;51.952;6.146;2023-09-19T00:33:40;100607.25;;;15.83;100.00
29909;BME280;36247;51.952;6.146;2023-09-19T00:36:06;100616.13;;;15.87;100.00
29909;BME280;36247;51.952;6.146;2023-09-19T00:38:36;100618.88;;;15.81;100.00
29909;BME280;36247;51.952;6.146;2023-09-19T00:41:02;100618.09;;;15.66;100.00
29909;BME280;36247;51.952;6.146;2023-09-19T00:43:28;100620.69;;;15.73;100.00
29909;BME280;36247;51.952;6.146;2023-09-19T00:45:58;100626.06;;;15.69;100.00
29909;BME280;36247;51.952;6.146;2023-09-19T00:48:26;100626.16;;;15.60;100.00
29909;BME280;36247;51.952;6.146;2023-09-19T00:50:57;100627.81;;;15.74;100.00
29909;BME280;36247;51.952;6.146;2023-09-19T00:53:30;100626.88;;;15.78;100.00
29909;BME280;36247;51.952;6.146;2023-09-19T00:55:57;100630.56;;;15.66;100.00
29909;BME280;36247;51.952;6.146;2023-09-19T00:58:23;100634.13;;;15.66;100.00
29909;BME280;36247;51.952;6.146;2023-09-19T01:00:49;100631.34;;;15.79;100.00
29909;BME280;36247;51.952;6.146;2023-09-19T01:03:15;100641.16;;;15.74;100.00
29909;BME280;36247;51.952;6.146;2023-09-19T01:05:41;100634.06;;;15.69;100.00
29909;BME280;36247;51.952;6.146;2023-09-19T01:08:07;100638.56;;;15.63;100.00
29909;BME280;36247;51.952;6.146;2023-09-19T01:10:33;100640.41;;;15.59;100.00
29909;BME280;36247;51.952;6.146;2023-09-19T01:13:40;100641.22;;;15.64;100.00
29909;BME280;36247;51.952;6.146;2023-09-19T01:16:13;100640.50;;;15.50;100.00
29909;BME280;36247;51.952;6.146;2023-09-19T01:18:52;100633.34;;;15.54;100.00
29909;BME280;36247;51.952;6.146;2023-09-19T01:29:47;100640.50;;;15.50;100.00
29909;BME280;36247;51.952;6.146;2023-09-19T01:32:21;100644.97;;;15.46;100.00
29909;BME280;36247;51.952;6.146;2023-09-19T01:37:20;100643.19;;;15.50;100.00
29909;BME280;36247;51.952;6.146;2023-09-19T01:40:00;100648.53;;;15.48;100.00
29909;BME280;36247;51.952;6.146;2023-09-19T01:51:00;100665.56;;;15.35;100.00
29909;BME280;36247;51.952;6.146;2023-09-19T01:56:08;100658.47;;;15.29;100.00
29909;BME280;36247;51.952;6.146;2023-09-19T01:58:59;100664.66;;;15.36;100.00
29909;BME280;36247;51.952;6.146;2023-09-19T02:01:29;100666.50;;;15.29;100.00
29909;BME280;36247;51.952;6.146;2023-09-19T02:03:57;100670.94;;;15.32;100.00
29909;BME280;36247;51.952;6.146;2023-09-19T02:06:23;100671.81;;;15.31;100.00
29909;BME280;36247;51.952;6.146;2023-09-19T02:08:52;100674.53;;;15.26;100.00
29909;BME280;36247;51.952;6.146;2023-09-19T02:11:19;100679.91;;;15.20;100.00
29909;BME280;36247;51.952;6.146;2023-09-19T02:13:48;100690.53;;;15.26;100.00
29909;BME280;36247;51.952;6.146;2023-09-19T02:16:20;100686.13;;;15.22;100.00
29909;BME280;36247;51.952;6.146;2023-09-19T02:18:49;100680.72;;;15.28;100.00
29909;BME280;36247;51.952;6.146;2023-09-19T02:21:18;100684.28;;;15.29;100.00
29909;BME280;36247;51.952;6.146;2023-09-19T02:23:45;100686.13;;;15.21;100.00
29909;BME280;36247;51.952;6.146;2023-09-19T02:26:13;100686.03;;;15.33;100.00
29909;BME280;36247;51.952;6.146;2023-09-19T02:28:42;100692.34;;;15.18;100.00
29909;BME280;36247;51.952;6.146;2023-09-19T02:31:08;100686.13;;;15.19;100.00
29909;BME280;36247;51.952;6.146;2023-09-19T02:33:34;100690.66;;;15.12;100.00
29909;BME280;36247;51.952;6.146;2023-09-19T02:36:00;100684.44;;;15.09;100.00
29909;BME280;36247;51.952;6.146;2023-09-19T02:38:26;100685.31;;;15.12;100.00
29909;BME280;36247;51.952;6.146;2023-09-19T02:40:52;100682.69;;;15.06;100.00
29909;BME280;36247;51.952;6.146;2023-09-19T02:43:18;100686.31;;;14.96;100.00
29909;BME280;36247;51.952;6.146;2023-09-19T02:45:47;100693.34;;;15.03;100.00
29909;BME280;36247;51.952;6.146;2023-09-19T02:48:16;100685.41;;;14.97;100.00
29909;BME280;36247;51.952;6.146;2023-09-19T02:50:42;100689.91;;;14.92;100.00
29909;BME280;36247;51.952;6.146;2023-09-19T02:53:10;100694.38;;;14.82;100.00
29909;BME280;36247;51.952;6.146;2023-09-19T02:55:38;100694.38;;;14.82;100.00
29909;BME280;36247;51.952;6.146;2023-09-19T02:58:06;100700.59;;;14.86;100.00
29909;BME280;36247;51.952;6.146;2023-09-19T03:00:41;100699.75;;;14.77;100.00
29909;BME280;36247;51.952;6.146;2023-09-19T03:03:08;100703.34;;;14.70;100.00
29909;BME280;36247;51.952;6.146;2023-09-19T03:05:34;100706.91;;;14.69;100.00
29909;BME280;36247;51.952;6.146;2023-09-19T03:08:00;100704.22;;;14.74;100.00
29909;BME280;36247;51.952;6.146;2023-09-19T03:10:27;100714.97;;;14.61;100.00
29909;BME280;36247;51.952;6.146;2023-09-19T03:12:56;100718.47;;;14.60;100.00
29909;BME280;36247;51.952;6.146;2023-09-19T03:15:22;100714.94;;;14.54;100.00
29909;BME280;36247;51.952;6.146;2023-09-19T03:17:50;100714.03;;;14.58;100.00
29909;BME280;36247;51.952;6.146;2023-09-19T03:20:20;100721.19;;;14.51;100.00
29909;BME280;36247;51.952;6.146;2023-09-19T03:22:48;100723.88;;;14.48;100.00
29909;BME280;36247;51.952;6.146;2023-09-19T03:25:15;100720.31;;;14.46;100.00
29909;BME280;36247;51.952;6.146;2023-09-19T03:27:45;100722.13;;;14.41;100.00
29909;BME280;36247;51.952;6.146;2023-09-19T03:30:13;100714.13;;;14.42;100.00
29909;BME280;36247;51.952;6.146;2023-09-19T03:32:46;100723.00;;;14.40;100.00
29909;BME280;36247;51.952;6.146;2023-09-19T03:35:13;100720.38;;;14.32;100.00
29909;BME280;36247;51.952;6.146;2023-09-19T03:37:41;100720.38;;;14.29;100.00
29909;BME280;36247;51.952;6.146;2023-09-19T03:40:09;100723.06;;;14.29;100.00
29909;BME280;36247;51.952;6.146;2023-09-19T03:42:40;100714.22;;;14.13;100.00
29909;BME280;36247;51.952;6.146;2023-09-19T03:45:10;100706.19;;;14.18;100.00
29909;BME280;36247;51.952;6.146;2023-09-19T03:47:40;100708.88;;;14.10;100.00
29909;BME280;36247;51.952;6.146;2023-09-19T03:50:08;100720.44;;;14.09;100.00
29909;BME280;36247;51.952;6.146;2023-09-19T03:52:37;100714.19;;;14.19;100.00
29909;BME280;36247;51.952;6.146;2023-09-19T03:55:04;100725.75;;;14.10;100.00
29909;BME280;36247;51.952;6.146;2023-09-19T03:57:33;100719.53;;;14.13;100.00
29909;BME280;36247;51.952;6.146;2023-09-19T04:00:03;100719.53;;;14.13;100.00
29909;BME280;36247;51.952;6.146;2023-09-19T04:02:39;100721.34;;;14.05;100.00
29909;BME280;36247;51.952;6.146;2023-09-19T04:05:07;100718.69;;;14.08;100.00
29909;BME280;36247;51.952;6.146;2023-09-19T04:07:34;100724.94;;;13.88;100.00
29909;BME280;36247;51.952;6.146;2023-09-19T04:10:00;100717.81;;;13.92;100.00
29909;BME280;36247;51.952;6.146;2023-09-19T04:12:26;100719.59;;;13.91;100.00
29909;BME280;36247;51.952;6.146;2023-09-19T04:14:52;100716.94;;;13.90;100.00
29909;BME280;36247;51.952;6.146;2023-09-19T04:17:18;100711.59;;;13.82;100.00
29909;BME280;36247;51.952;6.146;2023-09-19T04:19:44;100710.72;;;13.86;100.00
29909;BME280;36247;51.952;6.146;2023-09-19T04:22:11;100723.16;;;13.83;100.00
29909;BME280;36247;51.952;6.146;2023-09-19T04:24:37;100724.94;;;13.78;100.00
29909;BME280;36247;51.952;6.146;2023-09-19T04:27:04;100732.94;;;13.88;100.00
29909;BME280;36247;51.952;6.146;2023-09-19T04:29:30;100731.16;;;13.86;100.00
29909;BME280;36247;51.952;6.146;2023-09-19T04:31:58;100738.25;;;13.91;100.00
29909;BME280;36247;51.952;6.146;2023-09-19T04:34:24;100744.47;;;13.80;100.00
29909;BME280;36247;51.952;6.146;2023-09-19T04:36:51;100755.13;;;13.78;100.00
29909;BME280;36247;51.952;6.146;2023-09-19T04:39:18;100762.22;;;13.88;100.00
29909;BME280;36247;51.952;6.146;2023-09-19T04:41:43;100763.09;;;13.92;100.00
29909;BME280;36247;51.952;6.146;2023-09-19T04:44:11;100768.44;;;13.83;100.00
29909;BME280;36247;51.952;6.146;2023-09-19T04:46:38;100778.19;;;13.88;100.00
29909;BME280;36247;51.952;6.146;2023-09-19T04:49:05;100783.50;;;14.01;100.00
29909;BME280;36247;51.952;6.146;2023-09-19T04:51:31;100774.63;;;14.02;100.00
29909;BME280;36247;51.952;6.146;2023-09-19T04:54:07;100788.84;;;13.99;100.00
29909;BME280;36247;51.952;6.146;2023-09-19T04:56:32;100790.59;;;13.92;100.00
29909;BME280;36247;51.952;6.146;2023-09-19T04:58:59;100794.16;;;14.04;100.00
29909;BME280;36247;51.952;6.146;2023-09-19T05:01:26;100787.03;;;14.01;100.00
29909;BME280;36247;51.952;6.146;2023-09-19T05:03:53;100795.94;;;14.02;100.00
29909;BME280;36247;51.952;6.146;2023-09-19T05:06:19;100796.81;;;13.93;100.00
29909;BME280;36247;51.952;6.146;2023-09-19T05:08:47;100803.94;;;14.02;100.00
29909;BME280;36247;51.952;6.146;2023-09-19T05:11:17;100800.34;;;14.10;100.00
29909;BME280;36247;51.952;6.146;2023-09-19T05:13:43;100799.47;;;14.05;100.00
29909;BME280;36247;51.952;6.146;2023-09-19T05:16:09;100797.66;;;14.12;100.00
29909;BME280;36247;51.952;6.146;2023-09-19T05:18:36;100794.13;;;14.08;100.00
29909;BME280;36247;51.952;6.146;2023-09-19T05:21:03;100795.91;;;14.17;100.00
29909;BME280;36247;51.952;6.146;2023-09-19T05:23:29;100784.34;;;14.24;100.00
29909;BME280;36247;51.952;6.146;2023-09-19T05:25:56;100784.38;;;14.01;100.00
29909;BME280;36247;51.952;6.146;2023-09-19T05:28:26;100788.78;;;14.15;100.00
29909;BME280;36247;51.952;6.146;2023-09-19T05:39:07;100787.00;;;14.14;100.00
29909;BME280;36247;51.952;6.146;2023-09-19T05:45:42;100786.13;;;14.15;100.00
29909;BME280;36247;51.952;6.146;2023-09-19T05:48:10;100785.25;;;14.17;100.00
29909;BME280;36247;51.952;6.146;2023-09-19T05:50:37;100800.34;;;14.24;100.00
29909;BME280;36247;51.952;6.146;2023-09-19T05:53:04;100804.75;;;14.24;100.00
29909;BME280;36247;51.952;6.146;2023-09-19T05:55:31;100800.34;;;14.18;100.00
29909;BME280;36247;51.952;6.146;2023-09-19T05:57:57;100803.94;;;14.05;100.00
29909;BME280;36247;51.952;6.146;2023-09-19T06:00:24;100801.25;;;14.11;100.00
29909;BME280;36247;51.952;6.146;2023-09-19T06:03:01;100790.59;;;14.11;100.00
29909;BME280;36247;51.952;6.146;2023-09-19T06:05:28;100795.91;;;14.11;100.00
29909;BME280;36247;51.952;6.146;2023-09-19T06:07:56;100790.59;;;14.06;100.00
29909;BME280;36247;51.952;6.146;2023-09-19T06:10:27;100799.47;;;13.98;100.00
29909;BME280;36247;51.952;6.146;2023-09-19T06:12:56;100802.13;;;14.08;100.00
29909;BME280;36247;51.952;6.146;2023-09-19T06:15:26;100805.69;;;14.06;100.00
29909;BME280;36247;51.952;6.146;2023-09-19T06:17:55;100812.78;;;14.13;100.00
29909;BME280;36247;51.952;6.146;2023-09-19T06:20:34;100815.41;;;14.25;100.00
29909;BME280;36247;51.952;6.146;2023-09-19T06:23:13;100805.66;;;14.24;100.00
29909;BME280;36247;51.952;6.146;2023-09-19T06:25:42;100814.56;;;14.13;100.00
29909;BME280;36247;51.952;6.146;2023-09-19T06:32:41;100806.56;;;14.23;100.00
29909;BME280;36247;51.952;6.146;2023-09-19T06:35:23;100807.44;;;14.21;100.00
29909;BME280;36247;51.952;6.146;2023-09-19T06:37:53;100809.19;;;14.29;100.00
29909;BME280;36247;51.952;6.146;2023-09-19T06:40:37;100812.75;;;14.38;100.00
29909;BME280;36247;51.952;6.146;2023-09-19T06:43:04;100815.38;;;14.49;100.00
29909;BME280;36247;51.952;6.146;2023-09-19T06:45:33;100821.59;;;14.51;100.00
29909;BME280;36247;51.952;6.146;2023-09-19T06:48:00;100828.69;;;14.55;100.00
29909;BME280;36247;51.952;6.146;2023-09-19T06:50:28;100828.69;;;14.53;100.00
29909;BME280;36247;51.952;6.146;2023-09-19T06:53:04;100830.47;;;14.56;100.00
29909;BME280;36247;51.952;6.146;2023-09-19T06:55:31;100830.47;;;14.63;100.00
29909;BME280;36247;51.952;6.146;2023-09-19T06:57:57;100822.41;;;14.79;100.00
29909;BME280;36247;51.952;6.146;2023-09-19T07:00:28;100817.03;;;14.87;100.00
29909;BME280;36247;51.952;6.146;2023-09-19T07:02:58;100822.47;;;14.67;100.00
29909;BME280;36247;51.952;6.146;2023-09-19T07:05:37;100821.47;;;14.94;100.00
29909;BME280;36247;51.952;6.146;2023-09-19T07:08:09;100824.09;;;15.02;100.00
29909;BME280;36247;51.952;6.146;2023-09-19T07:10:38;100811.69;;;14.88;100.00
29909;BME280;36247;51.952;6.146;2023-09-19T07:13:08;100814.28;;;15.08;100.00
29909;BME280;36247;51.952;6.146;2023-09-19T07:15:40;100816.00;;;15.22;100.00
29909;BME280;36247;51.952;6.146;2023-09-19T07:18:14;100834.75;;;15.03;100.00
29909;BME280;36247;51.952;6.146;2023-09-19T07:20:45;100824.06;;;15.05;100.00
29909;BME280;36247;51.952;6.146;2023-09-19T07:23:19;100831.19;;;15.06;100.00
29909;BME280;36247;51.952;6.146;2023-09-19T07:25:50;100833.81;;;15.13;100.00
29909;BME280;36247;51.952;6.146;2023-09-19T07:28:20;100836.50;;;15.09;100.00
29909;BME280;36247;51.952;6.146;2023-09-19T07:30:46;100826.72;;;15.17;100.00
29909;BME280;36247;51.952;6.146;2023-09-19T07:33:13;100828.41;;;15.29;100.00
29909;BME280;36247;51.952;6.146;2023-09-19T07:35:46;100836.38;;;15.37;100.00
29909;BME280;36247;51.952;6.146;2023-09-19T07:38:27;100839.00;;;15.41;100.00
29909;BME280;36247;51.952;6.146;2023-09-19T07:41:00;100827.31;;;15.62;100.00
29909;BME280;36247;51.952;6.146;2023-09-19T07:43:33;100846.94;;;15.55;100.00
29909;BME280;36247;51.952;6.146;2023-09-19T07:46:06;100840.56;;;15.73;100.00
29909;BME280;36247;51.952;6.146;2023-09-19T07:48:38;100837.16;;;15.57;100.00
29909;BME280;36247;51.952;6.146;2023-09-19T07:51:09;100842.47;;;15.57;100.00
29909;BME280;36247;51.952;6.146;2023-09-19T07:53:39;100839.72;;;15.71;100.00
29909;BME280;36247;51.952;6.146;2023-09-19T07:56:07;100828.06;;;15.86;100.00
29909;BME280;36247;51.952;6.146;2023-09-19T07:58:34;100838.53;;;16.12;100.00
29909;BME280;36247;51.952;6.146;2023-09-19T08:01:09;100837.88;;;15.82;100.00
29909;BME280;36247;51.952;6.146;2023-09-19T08:03:38;100839.44;;;16.08;100.00
29909;BME280;36247;51.952;6.146;2023-09-19T08:06:08;100845.81;;;15.93;100.00
29909;BME280;36247;51.952;6.146;2023-09-19T08:08:35;100844.88;;;16.00;100.00
29909;BME280;36247;51.952;6.146;2023-09-19T08:11:06;100852.63;;;16.25;100.00
29909;BME280;36247;51.952;6.146;2023-09-19T08:13:48;100844.56;;;16.31;100.00
29909;BME280;36247;51.952;6.146;2023-09-19T08:16:15;100848.94;;;16.40;100.00
29909;BME280;36247;51.952;6.146;2023-09-19T08:18:41;100850.88;;;16.27;100.00
29909;BME280;36247;51.952;6.146;2023-09-19T08:21:11;100844.13;;;16.71;100.00
29909;BME280;36247;51.952;6.146;2023-09-19T08:23:41;100857.44;;;16.78;100.00
29909;BME280;36247;51.952;6.146;2023-09-19T08:26:07;100850.31;;;16.80;100.00
29909;BME280;36247;51.952;6.146;2023-09-19T08:28:34;100847.56;;;16.87;100.00
29909;BME280;36247;51.952;6.146;2023-09-19T08:31:04;100845.97;;;16.69;100.00
29909;BME280;36247;51.952;6.146;2023-09-19T08:33:33;100856.53;;;16.80;100.00
29909;BME280;36247;51.952;6.146;2023-09-19T08:36:09;100858.38;;;16.75;100.00
29909;BME280;36247;51.952;6.146;2023-09-19T08:38:43;100847.47;;;16.95;100.00
29909;BME280;36247;51.952;6.146;2023-09-19T08:41:09;100851.13;;;16.83;100.00
29909;BME280;36247;51.952;6.146;2023-09-19T08:43:35;100864.44;;;16.92;100.00
29909;BME280;36247;51.952;6.146;2023-09-19T08:48:32;100853.84;;;16.82;100.00
29909;BME280;36247;51.952;6.146;2023-09-19T08:51:12;100859.09;;;16.91;100.00
29909;BME280;36247;51.952;6.146;2023-09-19T08:56:40;100841.09;;;17.69;100.00
29909;BME280;36247;51.952;6.146;2023-09-19T08:59:08;100851.91;;;17.61;100.00
29909;BME280;36247;51.952;6.146;2023-09-19T09:01:47;100849.06;;;17.74;100.00
29909;BME280;36247;51.952;6.146;2023-09-19T09:04:14;100865.38;;;17.55;100.00
29909;BME280;36247;51.952;6.146;2023-09-19T09:06:42;100844.78;;;17.60;100.00
29909;BME280;36247;51.952;6.146;2023-09-19T09:09:10;100853.81;;;17.53;100.00
29909;BME280;36247;51.952;6.146;2023-09-19T09:11:45;100844.63;;;17.71;100.00
29909;BME280;36247;51.952;6.146;2023-09-19T09:14:15;100849.31;;;18.14;100.00
29909;BME280;36247;51.952;6.146;2023-09-19T09:16:41;100849.69;;;17.91;100.00
29909;BME280;36247;51.952;6.146;2023-09-19T09:19:11;100841.50;;;18.01;100.00
29909;BME280;36247;51.952;6.146;2023-09-19T09:21:47;100841.16;;;18.21;100.00
29909;BME280;36247;51.952;6.146;2023-09-19T09:24:31;100837.31;;;18.82;100.00
29909;BME280;36247;51.952;6.146;2023-09-19T09:27:08;100832.28;;;18.64;100.00
29909;BME280;36247;51.952;6.146;2023-09-19T09:29:48;100824.78;;;18.83;100.00
29909;BME280;36247;51.952;6.146;2023-09-19T09:32:30;100828.00;;;18.55;100.00
29909;BME280;36247;51.952;6.146;2023-09-19T09:35:00;100820.53;;;19.15;100.00
29909;BME280;36247;51.952;6.146;2023-09-19T09:37:28;100820.50;;;19.16;100.00
29909;BME280;36247;51.952;6.146;2023-09-19T09:40:01;100828.31;;;19.29;100.00
29909;BME280;36247;51.952;6.146;2023-09-19T09:42:52;100828.53;;;18.74;100.00
29909;BME280;36247;51.952;6.146;2023-09-19T09:45:27;100832.25;;;19.11;100.00
29909;BME280;36247;51.952;6.146;2023-09-19T09:48:13;100825.25;;;19.83;100.00
29909;BME280;36247;51.952;6.146;2023-09-19T09:51:00;100826.34;;;20.11;100.00
29909;BME280;36247;51.952;6.146;2023-09-19T09:53:30;100830.94;;;20.07;100.00
29909;BME280;36247;51.952;6.146;2023-09-19T09:56:10;100820.81;;;19.81;100.00
29909;BME280;36247;51.952;6.146;2023-09-19T10:01:15;100819.88;;;19.44;100.00
29909;BME280;36247;51.952;6.146;2023-09-19T10:03:42;100827.34;;;19.69;100.00
29909;BME280;36247;51.952;6.146;2023-09-19T10:06:16;100821.28;;;19.98;100.00
29909;BME280;36247;51.952;6.146;2023-09-19T10:09:08;100833.97;;;19.93;100.00
29909;BME280;36247;51.952;6.146;2023-09-19T10:12:04;100823.97;;;19.98;100.00
29909;BME280;36247;51.952;6.146;2023-09-19T10:14:37;100830.53;;;20.22;100.00
29909;BME280;36247;51.952;6.146;2023-09-19T10:17:12;100829.75;;;19.42;100.00
29909;BME280;36247;51.952;6.146;2023-09-19T10:19:57;100817.63;;;19.65;100.00
29909;BME280;36247;51.952;6.146;2023-09-19T10:22:34;100807.66;;;20.39;100.00
29909;BME280;36247;51.952;6.146;2023-09-19T10:25:03;100805.22;;;20.63;100.00
29909;BME280;36247;51.952;6.146;2023-09-19T10:27:37;100814.47;;;20.52;100.00
29909;BME280;36247;51.952;6.146;2023-09-19T10:30:11;100822.59;;;20.84;100.00
29909;BME280;36247;51.952;6.146;2023-09-19T10:32:43;100808.69;;;20.35;100.00
29909;BME280;36247;51.952;6.146;2023-09-19T10:35:13;100816.06;;;20.26;100.00
29909;BME280;36247;51.952;6.146;2023-09-19T10:37:45;100808.94;;;21.20;100.00
29909;BME280;36247;51.952;6.146;2023-09-19T10:40:16;100812.44;;;20.93;100.00
29909;BME280;36247;51.952;6.146;2023-09-19T10:42:45;100795.09;;;21.04;100.00
29909;BME280;36247;51.952;6.146;2023-09-19T10:45:12;100804.97;;;21.31;100.00
29909;BME280;36247;51.952;6.146;2023-09-19T10:47:41;100799.28;;;21.97;100.00
29909;BME280;36247;51.952;6.146;2023-09-19T10:50:08;100820.13;;;21.65;100.00
29909;BME280;36247;51.952;6.146;2023-09-19T10:52:40;100797.72;;;21.63;100.00
29909;BME280;36247;51.952;6.146;2023-09-19T10:55:10;100805.75;;;21.07;100.00
29909;BME280;36247;51.952;6.146;2023-09-19T10:57:44;100797.41;;;21.73;100.00
29909;BME280;36247;51.952;6.146;2023-09-19T11:00:12;100795.84;;;22.19;100.00
29909;BME280;36247;51.952;6.146;2023-09-19T11:03:16;100821.88;;;21.08;100.00
29909;BME280;36247;51.952;6.146;2023-09-19T11:06:28;100825.78;;;20.98;100.00
29909;BME280;36247;51.952;6.146;2023-09-19T11:09:01;100800.34;;;20.77;100.00
29909;BME280;36247;51.952;6.146;2023-09-19T11:11:57;100804.66;;;20.17;100.00
29909;BME280;36247;51.952;6.146;2023-09-19T11:30:41;100754.31;;;20.86;100.00
29909;BME280;36247;51.952;6.146;2023-09-19T11:33:27;100747.63;;;21.00;100.00
29909;BME280;36247;51.952;6.146;2023-09-19T11:36:11;100752.72;;;20.79;100.00
29909;BME280;36247;51.952;6.146;2023-09-19T11:46:54;100752.78;;;20.77;100.00
29909;BME280;36247;51.952;6.146;2023-09-19T11:49:34;100767.13;;;20.45;100.00
29909;BME280;36247;51.952;6.146;2023-09-19T11:52:03;100780.84;;;20.36;100.00
29909;BME280;36247;51.952;6.146;2023-09-19T11:54:36;100751.94;;;20.75;100.00
29909;BME280;36247;51.952;6.146;2023-09-19T11:57:05;100751.28;;;20.97;100.00
29909;BME280;36247;51.952;6.146;2023-09-19T11:59:33;100756.09;;;20.87;100.00
29909;BME280;36247;51.952;6.146;2023-09-19T12:02:09;100742.91;;;21.06;100.00
29909;BME280;36247;51.952;6.146;2023-09-19T12:04:44;100743.28;;;20.94;100.00
29909;BME280;36247;51.952;6.146;2023-09-19T12:07:23;100767.84;;;21.13;100.00
29909;BME280;36247;51.952;6.146;2023-09-19T12:10:02;100744.41;;;20.87;100.00
29909;BME280;36247;51.952;6.146;2023-09-19T12:12:30;100750.13;;;20.76;100.00
29909;BME280;36247;51.952;6.146;2023-09-19T12:15:05;100765.13;;;20.85;100.00
29909;BME280;36247;51.952;6.146;2023-09-19T12:17:37;100753.59;;;20.81;100.00
29909;BME280;36247;51.952;6.146;2023-09-19T12:20:14;100741.97;;;20.79;100.00
29909;BME280;36247;51.952;6.146;2023-09-19T12:22:44;100744.09;;;20.68;100.00
29909;BME280;36247;51.952;6.146;2023-09-19T12:25:11;100735.28;;;21.21;100.00
29909;BME280;36247;51.952;6.146;2023-09-19T12:27:47;100716.56;;;21.16;100.00
29909;BME280;36247;51.952;6.146;2023-09-19T12:30:30;100721.47;;;21.31;100.00
29909;BME280;36247;51.952;6.146;2023-09-19T12:33:05;100718.91;;;20.99;100.00
29909;BME280;36247;51.952;6.146;2023-09-19T12:35:38;100730.69;;;21.24;100.00
29909;BME280;36247;51.952;6.146;2023-09-19T12:38:31;100724.59;;;21.99;100.00
29909;BME280;36247;51.952;6.146;2023-09-19T12:40:58;100723.63;;;21.48;100.00
29909;BME280;36247;51.952;6.146;2023-09-19T12:43:36;100736.63;;;21.89;100.00
29909;BME280;36247;51.952;6.146;2023-09-19T12:46:10;100751.00;;;21.35;99.96
29909;BME280;36247;51.952;6.146;2023-09-19T12:48:46;100733.00;;;21.08;100.00
29909;BME280;36247;51.952;6.146;2023-09-19T12:51:20;100752.00;;;20.74;100.00
29909;BME280;36247;51.952;6.146;2023-09-19T12:53:57;100754.94;;;20.65;100.00
29909;BME280;36247;51.952;6.146;2023-09-19T12:56:24;100749.53;;;20.66;100.00
29909;BME280;36247;51.952;6.146;2023-09-19T12:58:57;100731.00;;;20.54;100.00
29909;BME280;36247;51.952;6.146;2023-09-19T13:01:27;100737.63;;;20.42;100.00
29909;BME280;36247;51.952;6.146;2023-09-19T13:04:16;100730.28;;;20.49;100.00
29909;BME280;36247;51.952;6.146;2023-09-19T13:06:50;100752.34;;;20.29;100.00
29909;BME280;36247;51.952;6.146;2023-09-19T13:09:20;100737.75;;;20.37;100.00
29909;BME280;36247;51.952;6.146;2023-09-19T13:12:01;100738.97;;;20.25;100.00
29909;BME280;36247;51.952;6.146;2023-09-19T13:14:33;100735.16;;;20.34;100.00
29909;BME280;36247;51.952;6.146;2023-09-19T13:17:12;100748.16;;;20.18;100.00
29909;BME280;36247;51.952;6.146;2023-09-19T13:19:50;100732.03;;;20.50;100.00
29909;BME280;36247;51.952;6.146;2023-09-19T13:22:47;100718.09;;;20.67;100.00
29909;BME280;36247;51.952;6.146;2023-09-19T13:25:21;100716.28;;;20.36;100.00
29909;BME280;36247;51.952;6.146;2023-09-19T13:27:52;100736.09;;;20.32;100.00
29909;BME280;36247;51.952;6.146;2023-09-19T13:30:24;100733.59;;;20.25;100.00
29909;BME280;36247;51.952;6.146;2023-09-19T13:33:12;100732.50;;;20.64;100.00
29909;BME280;36247;51.952;6.146;2023-09-19T13:35:46;100729.13;;;20.57;100.00
29909;BME280;36247;51.952;6.146;2023-09-19T13:38:15;100728.66;;;21.03;100.00
29909;BME280;36247;51.952;6.146;2023-09-19T13:40:43;100728.34;;;20.52;100.00
29909;BME280;36247;51.952;6.146;2023-09-19T13:43:10;100728.16;;;21.18;100.00
29909;BME280;36247;51.952;6.146;2023-09-19T13:45:39;100717.38;;;22.50;98.14
29909;BME280;36247;51.952;6.146;2023-09-19T13:48:08;100720.94;;;20.92;100.00
29909;BME280;36247;51.952;6.146;2023-09-19T13:50:46;100731.19;;;20.79;100.00
29909;BME280;36247;51.952;6.146;2023-09-19T13:53:12;100717.91;;;20.73;100.00
29909;BME280;36247;51.952;6.146;2023-09-19T13:55:39;100747.09;;;20.55;100.00
29909;BME280;36247;51.952;6.146;2023-09-19T13:58:16;100738.06;;;20.26;100.00
29909;BME280;36247;51.952;6.146;2023-09-19T14:00:53;100732.22;;;20.42;100.00
29909;BME280;36247;51.952;6.146;2023-09-19T14:03:22;100739.38;;;20.43;100.00
29909;BME280;36247;51.952;6.146;2023-09-19T14:05:53;100734.84;;;20.45;100.00
29909;BME280;36247;51.952;6.146;2023-09-19T14:08:21;100735.66;;;20.49;100.00
29909;BME280;36247;51.952;6.146;2023-09-19T14:10:49;100732.16;;;21.88;100.00
29909;BME280;36247;51.952;6.146;2023-09-19T14:13:24;100729.56;;;22.37;100.00